Time;durP1;ratioP1;P1;durP2;ratioP2;P2;SDS_P1;SDS_P2;PMS_P1;PMS_P2;Temp;Humidity;BMP_temperature;BMP_pressure;BME280_temperature;BME280_humidity;BME280_pressure;Samples;Min_cycle;Max_cycle;Signal;HPM_P1;HPM_P2
2022/12/23 06:31:04;;;;;;;;;2.00;1.00;;;;;15.50;100.00;100515.72;6183287;22;46440;-64
2022/12/23 06:33:30;;;;;;;;;2.00;1.00;;;;;15.47;100.00;100511.47;6244049;22;58877;-64
2022/12/23 06:35:55;;;;;;;;;0.00;0.00;;;;;15.38;100.00;100496.06;6244391;22;70011;-64
2022/12/23 06:38:20;;;;;;;;;0.33;0.33;;;;;15.48;100.00;100488.22;6246581;22;45280;-64
2022/12/23 06:40:46;;;;;;;;;1.00;1.00;;;;;15.51;100.00;100487.97;6245667;22;45234;-64
2022/12/23 06:43:12;;;;;;;;;2.00;1.00;;;;;15.52;100.00;100484.31;6245579;22;56152;-64
2022/12/23 06:45:38;;;;;;;;;0.67;0.67;;;;;15.55;100.00;100494.81;6245947;22;46127;-65
2022/12/23 06:48:04;;;;;;;;;0.00;0.00;;;;;15.52;100.00;100487.84;6246153;22;45219;-65
2022/12/23 06:50:29;;;;;;;;;0.33;0.33;;;;;15.54;100.00;100482.41;6247017;22;45229;-65
2022/12/23 06:52:54;;;;;;;;;0.00;0.00;;;;;15.53;100.00;100478.84;6245055;22;62754;-65
2022/12/23 06:55:19;;;;;;;;;0.00;0.00;;;;;15.51;100.00;100472.75;6245146;22;65752;-65
2022/12/23 06:57:45;;;;;;;;;0.00;0.00;;;;;15.50;100.00;100470.16;6245082;22;65483;-65
2022/12/23 07:00:11;;;;;;;;;0.00;0.00;;;;;15.50;100.00;100464.81;6246389;22;45629;-67
2022/12/23 07:02:36;;;;;;;;;0.00;0.00;;;;;15.48;100.00;100454.22;6246067;22;45472;-65
2022/12/23 07:05:02;;;;;;;;;0.00;0.00;;;;;15.50;100.00;100467.50;6246067;22;48806;-65
2022/12/23 07:07:27;;;;;;;;;0.00;0.00;;;;;15.45;100.00;100456.25;6246724;22;45279;-65
2022/12/23 07:09:52;;;;;;;;;0.00;0.00;;;;;15.47;100.00;100467.72;6245158;22;45233;-65
2022/12/23 07:12:18;;;;;;;;;0.00;0.00;;;;;15.47;100.00;100465.91;6245522;22;59794;-65
2022/12/23 07:14:43;;;;;;;;;0.00;0.00;;;;;15.50;100.00;100454.97;6243647;22;45968;-66
2022/12/23 07:17:08;;;;;;;;;0.00;0.00;;;;;15.53;100.00;100452.03;6246115;22;48860;-66
2022/12/23 07:19:34;;;;;;;;;0.00;0.00;;;;;15.55;100.00;100452.78;6246071;22;45284;-66
2022/12/23 07:21:59;;;;;;;;;0.00;0.00;;;;;15.58;100.00;100459.75;6243805;22;45339;-66
2022/12/23 07:24:24;;;;;;;;;2.00;2.00;;;;;15.61;100.00;100448.78;6245401;22;50538;-66
2022/12/23 07:26:51;;;;;;;;;0.00;0.00;;;;;15.62;100.00;100437.09;6244903;22;63906;-68
2022/12/23 07:29:16;;;;;;;;;0.00;0.00;;;;;15.62;100.00;100447.81;6218717;22;45664;-66
2022/12/23 07:31:41;;;;;;;;;1.00;1.00;;;;;15.62;100.00;100437.09;6244823;22;45151;-65
2022/12/23 07:34:07;;;;;;;;;0.00;0.00;;;;;15.64;100.00;100442.31;6245014;22;46703;-65
2022/12/23 07:36:33;;;;;;;;;0.00;0.00;;;;;15.64;100.00;100443.16;6246562;22;45269;-65
2022/12/23 07:38:58;;;;;;;;;0.00;0.00;;;;;15.65;100.00;100450.25;6244527;22;57887;-65
2022/12/23 07:41:23;;;;;;;;;0.00;0.00;;;;;15.67;100.00;100452.78;6246558;22;45228;-65
2022/12/23 07:43:49;;;;;;;;;0.33;0.33;;;;;15.69;100.00;100448.19;6245473;22;45252;-65
2022/12/23 07:46:14;;;;;;;;;0.00;0.00;;;;;15.70;100.00;100445.38;6245964;22;61914;-66
2022/12/23 07:48:43;;;;;;;;;0.00;0.00;;;;;15.74;100.00;100455.88;6245903;22;46994;-65
2022/12/23 07:51:08;;;;;;;;;0.00;0.00;;;;;15.76;100.00;100453.91;6246261;22;45272;-65
2022/12/23 07:53:33;;;;;;;;;0.00;0.00;;;;;15.78;100.00;100457.34;6245442;22;46344;-66
2022/12/23 07:55:59;;;;;;;;;0.33;0.33;;;;;15.77;100.00;100445.75;6244564;22;53901;-66
2022/12/23 07:58:24;;;;;;;;;1.00;0.00;;;;;15.77;100.00;100444.91;6245887;22;45328;-65
2022/12/23 08:00:50;;;;;;;;;1.00;0.00;;;;;15.80;100.00;100445.53;6244520;22;58225;-66
2022/12/23 08:03:15;;;;;;;;;0.00;0.00;;;;;15.80;100.00;100431.25;6245780;22;45578;-66
2022/12/23 08:05:40;;;;;;;;;0.33;0.33;;;;;15.85;100.00;100423.75;6245449;22;58923;-67
2022/12/23 08:08:06;;;;;;;;;0.00;0.00;;;;;15.82;100.00;100440.06;6245298;22;58019;-67
2022/12/23 08:10:31;;;;;;;;;0.00;0.00;;;;;15.83;100.00;100439.94;6245720;22;45683;-67
2022/12/23 08:12:59;;;;;;;;;0.00;0.00;;;;;15.82;100.00;100434.72;6244346;22;67011;-66
2022/12/23 08:15:24;;;;;;;;;0.00;0.00;;;;;15.84;100.00;100430.09;6245674;22;45296;-66
2022/12/23 08:17:50;;;;;;;;;0.33;0.00;;;;;15.84;100.00;100424.72;6217565;22;52430;-65
2022/12/23 08:20:15;;;;;;;;;0.00;0.00;;;;;15.91;100.00;100414.38;6246101;22;53904;-66
2022/12/23 08:22:40;;;;;;;;;2.00;0.33;;;;;15.91;100.00;100399.13;6245864;22;45189;-66
2022/12/23 08:25:06;;;;;;;;;0.00;0.00;;;;;15.91;100.00;100409.84;6243277;22;45307;-65
2022/12/23 08:27:31;;;;;;;;;0.00;0.00;;;;;15.93;100.00;100409.72;6245744;22;45261;-65
2022/12/23 08:29:57;;;;;;;;;0.00;0.00;;;;;15.94;100.00;100404.25;6245516;22;45275;-64
2022/12/23 08:32:26;;;;;;;;;0.00;0.00;;;;;15.97;100.00;100397.78;6242529;22;62689;-65
2022/12/23 08:34:51;;;;;;;;;0.67;0.00;;;;;16.00;100.00;100403.75;6243649;22;45696;-66
2022/12/23 08:37:16;;;;;;;;;0.00;0.00;;;;;16.02;100.00;100401.81;6244416;22;59919;-66
2022/12/23 08:39:42;;;;;;;;;1.00;0.00;;;;;16.05;100.00;100395.34;6244543;22;53460;-65
2022/12/23 08:42:07;;;;;;;;;0.00;0.00;;;;;16.02;100.00;100387.53;6243001;22;46894;-65
2022/12/23 08:44:33;;;;;;;;;0.00;0.00;;;;;15.91;100.00;100387.56;6245006;22;49892;-65
2022/12/23 08:46:58;;;;;;;;;0.00;0.00;;;;;15.93;100.00;100386.47;6245287;22;45185;-66
2022/12/23 08:49:24;;;;;;;;;0.00;0.00;;;;;15.96;100.00;100375.47;6217240;22;60698;-66
2022/12/23 08:51:49;;;;;;;;;0.00;0.00;;;;;15.98;100.00;100370.88;6243082;22;46145;-65
2022/12/23 08:54:16;;;;;;;;;0.00;0.00;;;;;15.96;100.00;100363.91;6243891;22;62801;-65
2022/12/23 08:56:41;;;;;;;;;0.00;0.00;;;;;15.85;100.00;100367.41;6244722;22;45309;-65
2022/12/23 08:59:12;;;;;;;;;0.00;0.00;;;;;15.92;100.00;100352.56;6244137;22;45305;-66
2022/12/23 09:01:37;;;;;;;;;0.00;0.00;;;;;15.98;100.00;100348.53;6216830;22;46248;-65
2022/12/23 09:04:04;;;;;;;;;0.00;0.00;;;;;16.01;100.00;100329.53;6240425;22;61750;-66
2022/12/23 09:06:35;;;;;;;;;0.00;0.00;;;;;16.02;100.00;100312.44;6246738;22;45269;-65
2022/12/23 09:09:00;;;;;;;;;2.33;0.00;;;;;16.00;100.00;100283.06;6246127;22;45308;-66
2022/12/23 09:11:27;;;;;;;;;0.00;0.00;;;;;15.91;100.00;100291.84;6246621;22;45320;-65
2022/12/23 09:13:53;;;;;;;;;0.67;0.00;;;;;15.78;100.00;100293.78;6246613;22;45318;-65
2022/12/23 09:16:18;;;;;;;;;0.00;0.00;;;;;15.63;100.00;100277.94;6246763;22;45282;-65
2022/12/23 09:18:44;;;;;;;;;0.00;0.00;;;;;15.62;100.00;100294.13;6246195;22;52265;-65
2022/12/23 09:21:12;;;;;;;;;0.00;0.00;;;;;15.84;100.00;100338.94;6246857;22;46054;-66
2022/12/23 09:23:38;;;;;;;;;2.67;0.67;;;;;15.87;100.00;100336.00;6245321;22;45398;-65
2022/12/23 09:26:05;;;;;;;;;1.00;1.00;;;;;15.94;100.00;100336.34;6245880;22;45388;-66
2022/12/23 09:28:30;;;;;;;;;0.00;0.00;;;;;15.93;100.00;100346.22;6247464;22;45352;-65
2022/12/23 09:30:55;;;;;;;;;0.00;0.00;;;;;15.95;100.00;100356.84;6244627;22;62940;-65
2022/12/23 09:33:21;;;;;;;;;0.00;0.00;;;;;15.95;100.00;100359.50;6242189;22;53435;-65
2022/12/23 09:35:46;;;;;;;;;1.33;0.00;;;;;15.91;100.00;100352.69;6244390;22;45519;-65
2022/12/23 09:38:12;;;;;;;;;1.00;0.00;;;;;15.93;100.00;100377.53;6218856;22;45481;-65
2022/12/23 09:40:39;;;;;;;;;0.67;0.00;;;;;15.95;100.00;100375.59;6245499;22;46773;-65
2022/12/23 09:43:26;;;;;;;;;0.33;0.00;;;;;15.96;100.00;100366.59;6246179;22;45174;-66
2022/12/23 09:46:00;;;;;;;;;0.00;0.00;;;;;16.01;100.00;100356.34;6219373;22;45377;-65
2022/12/23 09:48:29;;;;;;;;;0.00;0.00;;;;;16.07;100.00;100368.41;6246818;22;45254;-65
2022/12/23 09:50:55;;;;;;;;;0.00;0.00;;;;;16.08;100.00;100370.13;6245522;22;46116;-65
2022/12/23 09:53:22;;;;;;;;;0.00;0.00;;;;;16.08;100.00;100367.44;6219063;22;45347;-65
2022/12/23 09:55:55;;;;;;;;;0.00;0.00;;;;;16.10;100.00;100360.09;6245935;22;45317;-66
2022/12/23 09:59:06;;;;;;;;;0.67;0.00;;;;;16.02;100.00;100350.84;6218439;22;45367;-66
2022/12/23 10:01:42;;;;;;;;;0.25;0.00;;;;;16.09;100.00;100361.06;6241769;22;46027;-65
2022/12/23 10:04:07;;;;;;;;;0.25;0.00;;;;;16.03;100.00;100351.69;6218355;22;45589;-65
2022/12/23 10:06:33;;;;;;;;;0.00;0.00;;;;;16.14;100.00;100361.56;6246303;22;45438;-65
2022/12/23 10:09:03;;;;;;;;;0.00;0.00;;;;;16.21;100.00;100357.41;6218291;22;45303;-66
2022/12/23 10:11:33;;;;;;;;;0.00;0.00;;;;;16.24;100.00;100353.63;6219073;22;45287;-66
2022/12/23 10:14:01;;;;;;;;;0.00;0.00;;;;;16.25;100.00;100342.78;6219071;22;45389;-65
2022/12/23 10:16:29;;;;;;;;;0.00;0.00;;;;;16.30;100.00;100345.09;6246099;22;45421;-67
2022/12/23 10:18:56;;;;;;;;;0.00;0.00;;;;;16.34;100.00;100333.13;6218573;22;45336;-66
2022/12/23 10:21:24;;;;;;;;;0.67;0.67;;;;;16.37;100.00;100340.91;6218950;22;45362;-67
2022/12/23 10:23:51;;;;;;;;;0.33;0.33;;;;;16.45;100.00;100348.34;6217705;22;45360;-65
2022/12/23 10:26:28;;;;;;;;;0.00;0.00;;;;;16.36;100.00;100344.56;6246715;22;45247;-66
2022/12/23 10:29:00;;;;;;;;;0.00;0.00;;;;;16.39;100.00;100347.03;6219044;22;45324;-66
2022/12/23 10:31:51;;;;;;;;;0.00;0.00;;;;;16.36;100.00;100339.19;6219236;22;45312;-66
2022/12/23 10:34:21;;;;;;;;;2.50;0.00;;;;;16.30;100.00;100342.41;6219373;22;45356;-65
2022/12/23 10:37:10;;;;;;;;;0.00;0.00;;;;;16.36;100.00;100342.75;6218958;22;45190;-65
2022/12/23 10:39:45;;;;;;;;;0.00;0.00;;;;;16.35;100.00;100338.38;6193571;22;45604;-65
2022/12/23 10:42:22;;;;;;;;;0.00;0.00;;;;;16.35;100.00;100348.25;6218707;22;46373;-66
2022/12/23 10:45:29;;;;;;;;;0.00;0.00;;;;;16.52;100.00;100346.88;6245842;22;45303;-66
2022/12/23 10:48:08;;;;;;;;;0.00;0.00;;;;;16.57;100.00;100325.00;6223869;22;45400;-65
2022/12/23 10:50:34;;;;;;;;;0.00;0.00;;;;;16.64;100.00;100323.53;6246467;22;45324;-66
2022/12/23 10:53:03;;;;;;;;;0.00;0.00;;;;;16.69;100.00;100327.53;6245651;22;45227;-68
2022/12/23 10:55:31;;;;;;;;;0.00;0.00;;;;;16.79;100.00;100324.94;6245458;22;45584;-66
2022/12/23 10:58:12;;;;;;;;;0.00;0.00;;;;;16.88;100.00;100317.91;6245772;22;45300;-66
2022/12/23 11:00:40;;;;;;;;;0.00;0.00;;;;;16.99;100.00;100319.75;6245643;22;45683;-65
2022/12/23 11:03:22;;;;;;;;;2.25;0.00;;;;;17.12;100.00;100319.56;6217953;22;45373;-66
2022/12/23 11:05:49;;;;;;;;;0.00;0.00;;;;;17.15;99.60;100322.81;6217913;22;45519;-65
2022/12/23 11:08:14;;;;;;;;;1.00;0.00;;;;;17.18;99.38;100333.31;6219219;22;45338;-66
2022/12/23 11:10:40;;;;;;;;;0.00;0.00;;;;;17.16;98.52;100340.66;6245475;22;54382;-66
2022/12/23 11:13:05;;;;;;;;;0.00;0.00;;;;;17.11;97.85;100334.81;6244666;22;64545;-65
2022/12/23 11:15:39;;;;;;;;;1.00;0.00;;;;;17.13;98.90;100342.75;6219131;22;45344;-65
2022/12/23 11:18:10;;;;;;;;;0.00;0.00;;;;;17.18;98.77;100352.13;6245696;22;45230;-65
2022/12/23 11:20:37;;;;;;;;;0.00;0.00;;;;;17.19;98.21;100339.53;6238025;22;45855;-65
2022/12/23 11:23:03;;;;;;;;;1.00;1.00;;;;;17.20;97.82;100352.84;6243388;22;46649;-65
2022/12/23 11:25:31;;;;;;;;;0.00;0.00;;;;;17.25;97.38;100368.59;6244708;22;45606;-65
2022/12/23 11:28:18;;;;;;;;;0.00;0.00;;;;;17.27;96.08;100363.06;6243744;22;45409;-69
2022/12/23 11:30:53;;;;;;;;;2.50;0.00;;;;;17.32;96.58;100352.78;6217695;22;45201;-65
2022/12/23 11:33:54;;;;;;;;;0.00;0.00;;;;;17.46;96.88;100339.00;6245469;22;46059;-66
2022/12/23 11:36:24;;;;;;;;;0.00;0.00;;;;;17.54;95.69;100346.41;6218166;22;45359;-67
2022/12/23 11:39:08;;;;;;;;;0.00;0.00;;;;;17.55;93.96;100347.25;6217084;22;45525;-65
2022/12/23 11:41:39;;;;;;;;;1.00;1.00;;;;;17.49;94.76;100351.31;6245346;22;45305;-65
2022/12/23 11:44:24;;;;;;;;;0.00;0.00;;;;;17.52;94.38;100346.53;6217984;22;46314;-65
2022/12/23 11:46:50;;;;;;;;;0.25;0.25;;;;;17.56;93.79;100352.50;6217818;22;45376;-65
2022/12/23 11:49:16;;;;;;;;;0.00;0.00;;;;;17.61;91.32;100342.22;6245954;22;45276;-65
2022/12/23 11:51:43;;;;;;;;;0.00;0.00;;;;;17.64;92.33;100339.25;6245634;22;45233;-65
2022/12/23 11:54:18;;;;;;;;;0.50;0.50;;;;;17.75;92.73;100356.28;6245630;22;45268;-65
2022/12/23 11:56:43;;;;;;;;;0.75;0.75;;;;;17.96;93.59;100329.34;6244772;22;45312;-65
2022/12/23 11:59:26;;;;;;;;;2.00;0.00;;;;;18.59;88.25;100330.91;6244343;22;45111;-65
2022/12/23 12:01:52;;;;;;;;;0.25;0.25;;;;;18.70;87.61;100319.19;6244917;22;45225;-65
2022/12/23 12:04:21;;;;;;;;;3.75;0.50;;;;;18.78;86.16;100322.00;6217849;22;67764;-65
2022/12/23 12:06:48;;;;;;;;;1.00;1.00;;;;;18.85;85.09;100325.81;6218695;22;45333;-65
2022/12/23 12:09:13;;;;;;;;;2.00;0.75;;;;;18.98;87.00;100315.66;6245379;22;53054;-65
2022/12/23 12:11:49;;;;;;;;;0.00;0.00;;;;;19.21;82.77;100317.19;6243938;22;45348;-64
2022/12/23 12:14:28;;;;;;;;;0.00;0.00;;;;;19.32;82.15;100325.09;6218034;22;45337;-66
2022/12/23 12:17:01;;;;;;;;;0.00;0.00;;;;;19.29;81.19;100323.53;6217955;22;45347;-65
2022/12/23 12:19:28;;;;;;;;;0.00;0.00;;;;;19.23;79.95;100325.97;6218889;22;45334;-65
2022/12/23 12:21:56;;;;;;;;;0.00;0.00;;;;;19.21;82.05;100341.44;6218362;22;45359;-65
2022/12/23 12:24:35;;;;;;;;;1.50;0.00;;;;;19.25;79.41;100326.69;6217499;22;45316;-65
2022/12/23 12:27:04;;;;;;;;;0.50;0.50;;;;;18.96;82.86;100330.25;6217828;22;45356;-65
2022/12/23 12:29:50;;;;;;;;;1.00;1.00;;;;;18.92;82.57;100315.38;6245074;22;45498;-65
2022/12/23 12:32:32;;;;;;;;;0.75;0.75;;;;;18.87;82.39;100314.91;6218244;22;45340;-66
2022/12/23 12:35:09;;;;;;;;;1.00;1.00;;;;;18.80;83.00;100315.47;6244411;22;47156;-66
2022/12/23 12:37:40;;;;;;;;;0.25;0.25;;;;;18.96;81.04;100327.56;6218264;22;45328;-65
2022/12/23 12:40:34;;;;;;;;;1.00;1.00;;;;;18.88;82.08;100341.72;6244854;22;45310;-65
2022/12/23 12:43:29;;;;;;;;;1.00;1.00;;;;;18.94;79.25;100335.81;6245995;22;45301;-65
2022/12/23 12:46:31;;;;;;;;;1.00;0.00;;;;;18.97;80.58;100343.59;6218944;22;46896;-65
2022/12/23 12:49:04;;;;;;;;;0.25;0.25;;;;;18.94;80.92;100341.19;6245784;22;45331;-65
2022/12/23 12:51:37;;;;;;;;;1.00;1.00;;;;;18.93;79.66;100342.16;6220134;22;45260;-65
2022/12/23 12:54:21;;;;;;;;;2.00;0.25;;;;;18.90;78.66;100353.22;6217305;22;45294;-65
2022/12/23 12:56:52;;;;;;;;;1.00;1.00;;;;;18.78;78.99;100363.25;6218817;22;46778;-65
2022/12/23 12:59:25;;;;;;;;;0.25;0.00;;;;;18.77;79.56;100352.63;6245928;22;45379;-69
2022/12/23 13:02:15;;;;;;;;;1.00;1.00;;;;;18.84;79.93;100346.53;6245848;22;45241;-64
2022/12/23 13:05:02;;;;;;;;;1.00;1.00;;;;;18.96;78.30;100355.34;6247052;22;45331;-65
2022/12/23 13:07:36;;;;;;;;;0.00;0.00;;;;;18.92;78.65;100363.88;6219418;22;47184;-65
2022/12/23 13:10:38;;;;;;;;;0.50;0.50;;;;;18.84;77.25;100359.16;6245535;22;45293;-65
2022/12/23 13:13:21;;;;;;;;;2.00;1.00;;;;;18.81;78.54;100351.34;6245787;22;45558;-65
2022/12/23 13:15:54;;;;;;;;;0.00;0.00;;;;;18.77;79.05;100355.31;6246018;22;45364;-65
2022/12/23 13:18:38;;;;;;;;;3.00;1.00;;;;;18.67;78.43;100352.63;6244639;22;45251;-66
2022/12/23 13:21:09;;;;;;;;;0.50;0.50;;;;;18.52;77.58;100353.03;6243447;22;45351;-65
2022/12/23 13:23:56;;;;;;;;;0.25;0.25;;;;;18.33;79.17;100363.75;6217311;22;45418;-65
2022/12/23 13:26:48;;;;;;;;;1.75;1.00;;;;;18.20;80.41;100374.78;6246053;22;45248;-64
2022/12/23 13:29:43;;;;;;;;;0.00;0.00;;;;;18.17;79.83;100375.03;6245869;22;46779;-65
2022/12/23 13:32:40;;;;;;;;;2.00;2.00;;;;;18.08;79.93;100375.84;6244784;22;45382;-68
2022/12/23 13:35:47;;;;;;;;;2.50;1.25;;;;;18.00;80.85;100388.16;6217771;22;45300;-67
2022/12/23 13:38:50;;;;;;;;;0.50;0.50;;;;;17.98;80.84;100384.75;6159066;23;45320;-69
2022/12/23 13:41:28;;;;;;;;;3.00;0.25;;;;;17.95;80.85;100384.16;6245846;22;45577;-66
2022/12/23 13:43:59;;;;;;;;;1.00;1.00;;;;;17.92;81.68;100392.47;6218613;22;45487;-66
2022/12/23 13:46:34;;;;;;;;;0.25;0.25;;;;;17.88;81.59;100391.88;6245880;22;45348;-65
2022/12/23 13:49:12;;;;;;;;;1.00;1.00;;;;;17.83;81.10;100394.97;6246462;22;45334;-64
2022/12/23 13:51:58;;;;;;;;;2.00;0.25;;;;;17.82;81.74;100409.41;6246370;22;45623;-66
2022/12/23 13:54:42;;;;;;;;;1.00;1.00;;;;;17.80;81.77;100399.78;6246178;22;45569;-67
2022/12/23 13:57:38;;;;;;;;;1.00;1.00;;;;;17.75;82.13;100391.25;6246638;22;45308;-66
2022/12/23 14:00:25;;;;;;;;;0.00;0.00;;;;;17.69;81.69;100398.00;6246235;22;45289;-65
2022/12/23 14:03:04;;;;;;;;;1.25;1.00;;;;;17.58;82.04;100390.88;6244778;22;46150;-66
2022/12/23 14:05:33;;;;;;;;;0.67;0.67;;;;;17.55;82.06;100384.88;6245336;22;45240;-67
2022/12/23 14:08:01;;;;;;;;;0.25;0.25;;;;;17.48;82.69;100380.06;6244786;22;45544;-67
2022/12/23 14:10:27;;;;;;;;;0.00;0.00;;;;;17.39;83.06;100385.34;6218386;22;45401;-64
2022/12/23 14:13:02;;;;;;;;;2.00;0.00;;;;;17.34;83.55;100381.22;6244743;22;46178;-66
2022/12/23 14:15:28;;;;;;;;;0.75;0.75;;;;;17.28;83.55;100389.81;6219740;22;45352;-64
2022/12/23 14:18:12;;;;;;;;;0.00;0.00;;;;;17.25;84.12;100397.28;6245381;22;45235;-64
2022/12/23 14:21:06;;;;;;;;;0.00;0.00;;;;;17.19;84.09;100406.72;6245970;22;45689;-65
2022/12/23 14:23:59;;;;;;;;;1.00;1.00;;;;;17.13;84.79;100402.72;6223493;22;45671;-64
2022/12/23 14:26:38;;;;;;;;;3.67;1.00;;;;;17.10;85.13;100396.75;6246390;22;45260;-65
2022/12/23 14:29:09;;;;;;;;;0.50;0.50;;;;;17.07;84.58;100397.84;6218290;22;45214;-65
2022/12/23 14:31:41;;;;;;;;;1.00;1.00;;;;;17.01;85.12;100401.91;6246165;22;45482;-64
2022/12/23 14:34:16;;;;;;;;;3.00;2.00;;;;;16.97;84.80;100407.66;6218794;22;46921;-65
2022/12/23 14:37:14;;;;;;;;;1.25;1.00;;;;;16.95;85.11;100407.78;6246572;22;45307;-65
2022/12/23 14:39:40;;;;;;;;;1.00;1.00;;;;;16.94;85.49;100410.63;6246223;22;45315;-65
2022/12/23 14:42:09;;;;;;;;;1.00;1.00;;;;;16.92;85.03;100408.06;6218136;22;45627;-65
2022/12/23 14:44:34;;;;;;;;;1.33;1.00;;;;;16.84;84.88;100408.66;6245414;22;45967;-65
2022/12/23 14:47:00;;;;;;;;;1.00;1.00;;;;;16.79;84.84;100418.94;6245219;22;45315;-64
2022/12/23 14:49:37;;;;;;;;;3.00;1.67;;;;;16.70;84.71;100417.00;6218292;22;45382;-66
2022/12/23 14:52:39;;;;;;;;;1.67;1.67;;;;;16.59;85.37;100412.50;6245288;22;45241;-65
2022/12/23 14:55:22;;;;;;;;;2.33;1.33;;;;;16.48;85.64;100431.31;6244735;22;46292;-65
2022/12/23 14:57:55;;;;;;;;;1.67;1.00;;;;;16.38;86.69;100449.97;6244949;22;45395;-63
2022/12/23 15:00:20;;;;;;;;;2.00;2.00;;;;;16.36;87.04;100452.78;6217968;22;45320;-64
2022/12/23 15:02:46;;;;;;;;;4.67;2.00;;;;;16.38;86.84;100450.81;6244510;22;45205;-65
2022/12/23 15:05:11;;;;;;;;;2.33;1.00;;;;;16.35;86.29;100455.59;6245395;22;45651;-64
2022/12/23 15:07:40;;;;;;;;;3.00;3.00;;;;;16.29;87.12;100464.97;6216357;22;61966;-61
2022/12/23 15:10:18;;;;;;;;;2.00;1.00;;;;;16.27;86.44;100469.63;6215385;22;45411;-55
2022/12/23 15:12:47;;;;;;;;;2.00;2.00;;;;;16.22;86.32;100477.19;6216576;22;45500;-57
2022/12/23 15:15:14;;;;;;;;;1.00;0.00;;;;;16.17;86.38;100492.81;6216875;22;46309;-57
2022/12/23 15:17:39;;;;;;;;;2.67;2.33;;;;;16.14;86.78;100504.63;6243681;22;45662;-61
2022/12/23 15:20:25;;;;;;;;;6.00;5.00;;;;;16.14;86.47;100499.25;6245571;22;45321;-56
2022/12/23 15:22:53;;;;;;;;;3.00;2.00;;;;;16.12;86.60;100514.59;6245355;22;45396;-61
2022/12/23 15:25:27;;;;;;;;;2.00;2.00;;;;;16.09;86.46;100511.31;6245069;22;45229;-61
2022/12/23 15:27:54;;;;;;;;;1.33;1.00;;;;;16.04;86.47;100511.69;6244604;22;45322;-60
2022/12/23 15:30:20;;;;;;;;;2.00;1.00;;;;;16.00;86.40;100510.22;6243532;22;45513;-61
2022/12/23 15:32:48;;;;;;;;;2.00;2.00;;;;;15.99;86.61;100512.03;6244878;22;45511;-61
2022/12/23 15:35:29;;;;;;;;;2.67;1.33;;;;;15.97;86.41;100510.44;6218324;22;46063;-59
2022/12/23 15:37:55;;;;;;;;;1.33;1.33;;;;;15.92;85.83;100518.84;6244558;22;45375;-61
2022/12/23 15:40:26;;;;;;;;;3.33;1.33;;;;;15.91;86.08;100530.53;6245541;22;45194;-62
2022/12/23 15:42:52;;;;;;;;;5.33;1.00;;;;;15.86;85.80;100530.03;6244833;22;45337;-63
2022/12/23 15:45:29;;;;;;;;;4.00;2.00;;;;;15.83;85.77;100527.59;6244813;22;46163;-62
2022/12/23 15:47:54;;;;;;;;;4.67;2.00;;;;;15.78;86.09;100529.75;6243646;22;45314;-60
2022/12/23 15:50:19;;;;;;;;;2.00;1.67;;;;;15.76;85.49;100540.59;6245361;22;46052;-62
2022/12/23 15:52:46;;;;;;;;;1.00;1.00;;;;;15.71;85.51;100532.03;6214360;22;45352;-60
2022/12/23 15:55:30;;;;;;;;;4.33;2.00;;;;;15.72;85.49;100536.41;6217705;22;46221;-60
2022/12/23 15:57:56;;;;;;;;;3.33;2.00;;;;;15.68;85.20;100538.50;6242359;22;45244;-62
2022/12/23 16:00:26;;;;;;;;;2.67;0.67;;;;;15.66;85.19;100539.59;6244719;22;45232;-61
2022/12/23 16:02:52;;;;;;;;;2.33;2.33;;;;;15.64;85.36;100557.59;6243483;22;45466;-61
2022/12/23 16:05:33;;;;;;;;;3.00;1.67;;;;;15.63;86.11;100554.06;6216754;22;46167;-60
2022/12/23 16:08:14;;;;;;;;;2.67;1.00;;;;;15.65;85.57;100548.59;6235460;22;45718;-60
2022/12/23 16:10:41;;;;;;;;;2.00;2.00;;;;;15.63;85.50;100546.03;6238851;22;45490;-61
2022/12/23 16:13:18;;;;;;;;;4.33;2.67;;;;;15.65;85.29;100556.63;6213442;22;45969;-59
2022/12/23 16:15:44;;;;;;;;;7.67;3.33;;;;;15.65;85.26;100562.00;6242395;22;46111;-60
2022/12/23 16:18:12;;;;;;;;;5.67;4.00;;;;;15.64;85.18;100561.13;6242956;22;45426;-60
2022/12/23 16:20:43;;;;;;;;;3.33;2.00;;;;;15.65;85.47;100572.72;6244929;22;45288;-59
2022/12/23 16:23:10;;;;;;;;;4.33;3.00;;;;;15.65;85.66;100581.59;6243048;22;45739;-60
2022/12/23 16:25:36;;;;;;;;;4.33;3.00;;;;;15.63;85.01;100586.25;6216343;22;45330;-60
2022/12/23 16:28:12;;;;;;;;;6.33;3.67;;;;;15.60;84.52;100581.09;6216781;22;45401;-60
2022/12/23 16:30:40;;;;;;;;;5.00;2.00;;;;;15.56;84.95;100590.34;6243040;22;45284;-62
2022/12/23 16:33:40;;;;;;;;;2.00;1.00;;;;;15.49;85.00;100581.06;6244479;22;45247;-61
2022/12/23 16:36:24;;;;;;;;;2.67;1.33;;;;;15.46;84.96;100567.88;6217129;22;46442;-60
2022/12/23 16:39:00;;;;;;;;;2.33;2.00;;;;;15.43;85.60;100571.63;6241371;22;45524;-59
2022/12/23 16:41:25;;;;;;;;;3.00;2.00;;;;;15.39;84.61;100571.00;6216945;22;45337;-62
2022/12/23 16:43:50;;;;;;;;;4.67;4.67;;;;;15.32;84.39;100567.06;6242535;22;45300;-67
2022/12/23 16:46:17;;;;;;;;;4.00;3.67;;;;;15.22;84.04;100566.88;6243849;22;61371;-67
2022/12/23 16:48:50;;;;;;;;;5.00;4.00;;;;;15.15;84.23;100588.91;6243722;22;45343;-67
2022/12/23 16:51:19;;;;;;;;;6.67;5.33;;;;;15.07;84.88;100583.22;6244439;22;45715;-69
2022/12/23 16:53:46;;;;;;;;;2.33;2.33;;;;;15.02;84.23;100594.28;6242183;22;45311;-67
2022/12/23 16:56:13;;;;;;;;;8.00;5.33;;;;;14.97;84.59;100605.31;6244773;22;46125;-66
2022/12/23 16:58:38;;;;;;;;;4.00;3.33;;;;;14.95;84.68;100609.91;6244220;22;45455;-67
2022/12/23 17:01:03;;;;;;;;;3.00;3.00;;;;;14.92;84.23;100606.63;6243253;22;51298;-66
2022/12/23 17:03:29;;;;;;;;;6.00;4.00;;;;;14.80;85.04;100614.53;6244647;22;45457;-67
2022/12/23 17:05:54;;;;;;;;;3.33;3.33;;;;;14.77;85.15;100609.41;6244624;22;46052;-67
2022/12/23 17:08:19;;;;;;;;;5.33;4.33;;;;;14.76;85.00;100615.72;6244359;22;62261;-67
2022/12/23 17:10:45;;;;;;;;;4.00;2.67;;;;;14.74;85.63;100608.78;6244009;22;59621;-67
2022/12/23 17:13:12;;;;;;;;;3.00;3.00;;;;;14.70;85.29;100622.34;6219481;22;45435;-67
2022/12/23 17:15:37;;;;;;;;;7.33;4.67;;;;;14.68;85.55;100618.94;6193584;22;47650;-68
2022/12/23 17:18:03;;;;;;;;;7.33;5.67;;;;;14.67;85.71;100630.59;6245934;22;45213;-67
2022/12/23 17:20:29;;;;;;;;;6.00;3.00;;;;;14.64;86.26;100628.16;6246038;22;45188;-66
2022/12/23 17:22:57;;;;;;;;;6.33;3.33;;;;;14.65;86.24;100645.94;6218197;22;46066;-67
2022/12/23 17:25:24;;;;;;;;;4.00;3.67;;;;;14.63;86.33;100657.69;6218016;22;45921;-66
2022/12/23 17:27:52;;;;;;;;;4.00;4.00;;;;;14.60;86.77;100657.88;6243282;22;45287;-66
2022/12/23 17:30:20;;;;;;;;;4.00;3.67;;;;;14.59;87.28;100667.75;6245601;22;45257;-66
2022/12/23 17:32:50;;;;;;;;;6.67;3.00;;;;;14.60;87.05;100664.09;6245738;22;45237;-67
2022/12/23 17:35:15;;;;;;;;;5.00;4.00;;;;;14.64;87.02;100659.41;6245355;22;45327;-67
2022/12/23 17:37:40;;;;;;;;;7.67;3.67;;;;;14.72;87.47;100667.78;6244846;22;45490;-67
2022/12/23 17:40:08;;;;;;;;;5.33;4.33;;;;;14.80;87.22;100667.25;6244581;22;45456;-66
2022/12/23 17:42:33;;;;;;;;;6.00;4.67;;;;;14.86;86.99;100669.47;6193634;22;45322;-66
2022/12/23 17:44:59;;;;;;;;;4.67;4.00;;;;;14.86;87.24;100690.91;6216629;22;68010;-66
2022/12/23 17:47:24;;;;;;;;;5.00;4.00;;;;;14.85;87.06;100711.47;6218655;22;64295;-66
2022/12/23 17:49:50;;;;;;;;;6.67;6.00;;;;;14.85;86.81;100698.09;6192988;22;45469;-66
2022/12/23 17:52:21;;;;;;;;;5.67;4.67;;;;;14.87;86.92;100703.31;6219559;22;45329;-66
2022/12/23 17:54:48;;;;;;;;;6.33;5.00;;;;;14.87;86.63;100690.81;6245068;22;45666;-66
2022/12/23 17:57:22;;;;;;;;;8.00;5.67;;;;;14.85;87.24;100673.13;6244676;22;45711;-66
2022/12/23 17:59:48;;;;;;;;;11.33;6.00;;;;;14.82;86.84;100671.53;6244407;22;45270;-66
2022/12/23 18:02:23;;;;;;;;;7.67;5.00;;;;;14.78;86.92;100674.50;6244933;22;45237;-66
2022/12/23 18:04:48;;;;;;;;;5.00;3.67;;;;;14.76;87.09;100690.69;6245408;22;45802;-66
2022/12/23 18:07:14;;;;;;;;;8.33;5.00;;;;;14.76;87.07;100711.22;6244587;22;45139;-65
2022/12/23 18:09:39;;;;;;;;;7.67;4.00;;;;;14.72;87.44;100715.97;6245434;22;59576;-66
2022/12/23 18:12:05;;;;;;;;;7.33;4.33;;;;;14.71;87.41;100728.47;6242565;22;61048;-67